createdAt,value
2023-02-08T00:01:26.925Z,99688.03
2023-02-08T00:03:55.444Z,99683.75
2023-02-08T00:06:23.850Z,99688.94
2023-02-08T00:08:53.497Z,99686.38
2023-02-08T00:11:22.003Z,99676.06
2023-02-08T00:13:50.390Z,99688.16
2023-02-08T00:16:19.338Z,99687.34
2023-02-08T00:18:47.699Z,99688.22
2023-02-08T00:21:18.420Z,99687.41
2023-02-08T00:23:47.480Z,99687.41
2023-02-08T00:26:17.449Z,99684.84
2023-02-08T00:28:45.792Z,99686.59
2023-02-08T00:31:14.175Z,99684.03
2023-02-08T00:33:42.553Z,99688.31
2023-02-08T00:36:12.957Z,99684.91
2023-02-08T00:38:41.243Z,99682.34
2023-02-08T00:41:09.697Z,99693.59
2023-02-08T00:43:39.363Z,99684.09
2023-02-08T00:46:09.565Z,99682.38
2023-02-08T00:48:37.903Z,99691.91
2023-02-08T00:51:08.861Z,99688.47
2023-02-08T00:53:38.474Z,99688.47
2023-02-08T00:56:08.203Z,99691.09
2023-02-08T00:58:38.067Z,99689.41
2023-02-08T01:01:08.124Z,99685.09
2023-02-08T01:03:38.711Z,99681.66
2023-02-08T01:06:09.345Z,99691.16
2023-02-08T01:08:38.267Z,99687.75
2023-02-08T01:11:09.961Z,99682.56
2023-02-08T01:13:40.221Z,99694.69
2023-02-08T01:16:11.606Z,99692.13
2023-02-08T01:18:40.745Z,99691.28
2023-02-08T01:21:11.877Z,99684.38
2023-02-08T01:23:40.951Z,99693.91
2023-02-08T01:26:10.686Z,99689.56
2023-02-08T01:28:40.726Z,99690.50
2023-02-08T01:31:10.881Z,99687.91
2023-02-08T01:33:39.647Z,99690.50
2023-02-08T01:36:09.161Z,99692.22
2023-02-08T01:38:37.824Z,99698.34
2023-02-08T01:41:08.658Z,99694.06
2023-02-08T01:44:10.151Z,99694.91
2023-02-08T01:46:40.690Z,99693.19
2023-02-08T01:49:17.458Z,99684.56
2023-02-08T01:51:49.768Z,99687.16
2023-02-08T01:54:21.041Z,99691.50
2023-02-08T01:56:51.032Z,99683.72
2023-02-08T01:59:37.580Z,99685.47
2023-02-08T02:02:09.364Z,99682.00
2023-02-08T02:04:37.718Z,99679.41
2023-02-08T02:07:06.885Z,99676.00
2023-02-08T02:09:42.598Z,99676.84
2023-02-08T02:12:11.848Z,99677.75
2023-02-08T02:14:41.701Z,99674.28
2023-02-08T02:17:12.488Z,99669.97
2023-02-08T02:19:51.448Z,99666.50
2023-02-08T02:22:55.989Z,99669.97
2023-02-08T02:26:18.636Z,99654.47
2023-02-08T02:29:34.997Z,99655.41
2023-02-08T02:32:20.416Z,99664.03
2023-02-08T02:34:54.022Z,99654.53
2023-02-08T02:37:41.353Z,99651.94
2023-02-08T02:40:20.163Z,99648.50
2023-02-08T02:43:19.580Z,99645.91
2023-02-08T02:45:57.707Z,99654.56
2023-02-08T02:48:34.821Z,99645.09
2023-02-08T02:51:10.771Z,99649.41
2023-02-08T02:53:49.519Z,99649.44
2023-02-08T02:56:21.320Z,99646.00
2023-02-08T02:58:50.868Z,99646.84
2023-02-08T03:01:26.139Z,99654.63
2023-02-08T03:03:56.045Z,99644.31
2023-02-08T03:06:52.646Z,99646.88
2023-02-08T03:10:00.983Z,99654.72
2023-02-08T03:12:41.852Z,99664.25
2023-02-08T03:15:25.095Z,99667.69
2023-02-08T03:18:06.571Z,99658.22
2023-02-08T03:20:40.476Z,99661.72
2023-02-08T03:23:16.634Z,99664.31
2023-02-08T03:25:52.488Z,99663.44
2023-02-08T03:28:27.534Z,99660.88
2023-02-08T03:31:08.662Z,99650.50
2023-02-08T03:33:43.660Z,99655.69
2023-02-08T03:36:19.340Z,99655.72
2023-02-08T03:38:50.157Z,99660.91
2023-02-08T03:41:25.046Z,99663.50
2023-02-08T03:43:59.387Z,99670.41
2023-02-08T03:46:33.338Z,99669.59
2023-02-08T03:49:08.149Z,99672.16
2023-02-08T03:51:40.660Z,99668.69
2023-02-08T03:54:15.288Z,99666.09
2023-02-08T03:56:49.764Z,99662.63
2023-02-08T03:59:22.968Z,99666.94
2023-02-08T04:01:56.864Z,99666.09
2023-02-08T04:04:27.763Z,99659.19
2023-02-08T04:06:57.498Z,99656.56
2023-02-08T04:09:25.870Z,99661.75
2023-02-08T04:11:54.148Z,99653.13
2023-02-08T04:14:22.401Z,99649.63
2023-02-08T04:16:50.687Z,99653.94
2023-02-08T04:19:19.019Z,99646.19
2023-02-08T04:21:47.329Z,99653.06
2023-02-08T04:24:16.979Z,99647.91
2023-02-08T04:26:45.272Z,99640.13
2023-02-08T04:29:13.831Z,99642.69
2023-02-08T04:31:42.189Z,99648.75
2023-02-08T04:34:10.529Z,99640.13
2023-02-08T04:36:38.778Z,99642.69
2023-02-08T04:39:07.191Z,99639.22
2023-02-08T04:41:36.836Z,99639.22
2023-02-08T04:44:05.146Z,99636.59
2023-02-08T04:46:33.456Z,99641.78
2023-02-08T04:49:01.717Z,99639.19
2023-02-08T04:51:29.956Z,99644.41
2023-02-08T04:53:58.212Z,99641.78
2023-02-08T04:56:26.468Z,99639.19
2023-02-08T04:58:56.179Z,99642.66
2023-02-08T05:01:24.534Z,99635.75
2023-02-08T05:03:52.768Z,99638.34
2023-02-08T05:06:21.055Z,99647.84
2023-02-08T05:08:49.293Z,99647.00
2023-02-08T05:11:23.075Z,99643.56
2023-02-08T05:13:51.735Z,99636.63
2023-02-08T05:16:21.550Z,99640.97
2023-02-08T05:18:49.914Z,99638.38
2023-02-08T05:21:18.202Z,99638.38
2023-02-08T05:23:46.887Z,99631.44
2023-02-08T05:26:15.229Z,99624.56
2023-02-08T05:28:43.497Z,99634.94
2023-02-08T05:31:13.907Z,99637.50
2023-02-08T05:33:43.623Z,99632.31
2023-02-08T05:36:12.108Z,99627.16
2023-02-08T05:38:40.359Z,99646.16
2023-02-08T05:41:08.679Z,99650.50
2023-02-08T05:43:37.199Z,99648.75
2023-02-08T05:46:05.824Z,99647.91
2023-02-08T05:48:34.487Z,99646.16
2023-02-08T05:51:04.242Z,99647.88
2023-02-08T05:53:32.712Z,99647.03
2023-02-08T05:56:00.970Z,99654.78
2023-02-08T05:58:29.416Z,99647.03
2023-02-08T06:00:57.990Z,99660.88
2023-02-08T06:03:26.551Z,99666.09
2023-02-08T06:05:54.815Z,99662.56
2023-02-08T06:08:24.479Z,99659.13
2023-02-08T06:10:52.716Z,99653.09
2023-02-08T06:13:21.003Z,99659.97
2023-02-08T06:15:49.235Z,99657.38
2023-02-08T06:18:17.850Z,99666.03
2023-02-08T06:20:46.148Z,99659.13
2023-02-08T06:23:14.412Z,99661.72
2023-02-08T06:25:44.032Z,99666.91
2023-02-08T06:28:12.330Z,99672.09
2023-02-08T06:30:41.018Z,99672.09
2023-02-08T06:33:09.495Z,99664.31
2023-02-08T06:35:38.067Z,99666.91
2023-02-08T06:38:06.311Z,99666.06
2023-02-08T06:40:34.606Z,99681.56
2023-02-08T06:43:04.292Z,99682.44
2023-02-08T06:45:32.598Z,99685.03
2023-02-08T06:48:00.936Z,99689.34
2023-02-08T06:50:29.224Z,99687.59
2023-02-08T06:52:57.484Z,99678.13
2023-02-08T06:55:25.748Z,99692.78
2023-02-08T06:57:55.080Z,99686.72
2023-02-08T07:00:25.293Z,99680.66
2023-02-08T07:02:53.597Z,99679.78
2023-02-08T07:05:21.866Z,99675.44
2023-02-08T07:07:50.281Z,99672.84
2023-02-08T07:10:18.809Z,99672.81
2023-02-08T07:12:47.073Z,99674.50
2023-02-08T07:15:15.349Z,99681.41
2023-02-08T07:17:44.948Z,99677.00
2023-02-08T07:20:13.834Z,99670.06
2023-02-08T07:22:42.862Z,99680.34
2023-02-08T07:25:11.568Z,99674.16
2023-02-08T07:27:39.837Z,99674.91
2023-02-08T07:30:09.704Z,99667.78
2023-02-08T07:32:37.926Z,99670.19
2023-02-08T07:35:08.718Z,99667.38
2023-02-08T07:37:36.935Z,99648.09
2023-02-08T07:40:05.560Z,99647.00
2023-02-08T07:42:34.703Z,99655.31
2023-02-08T07:45:04.330Z,99656.75
2023-02-08T07:47:32.658Z,99650.38
2023-02-08T07:50:00.942Z,99652.56
2023-02-08T07:52:30.621Z,99654.84
2023-02-08T07:54:58.856Z,99647.53
2023-02-08T07:57:27.117Z,99650.59
2023-02-08T07:59:55.375Z,99640.72
2023-02-08T08:02:23.881Z,99640.41
2023-02-08T08:04:54.103Z,99639.16
2023-02-08T08:07:22.389Z,99640.53
2023-02-08T08:09:52.049Z,99642.81
2023-02-08T08:12:20.944Z,99651.06
2023-02-08T08:14:49.232Z,99650.53
2023-02-08T08:17:17.792Z,99647.56
2023-02-08T08:19:46.161Z,99656.78
2023-02-08T08:22:14.411Z,99649.38
2023-02-08T08:24:42.652Z,99645.53
2023-02-08T08:27:12.358Z,99652.00
2023-02-08T08:29:40.668Z,99652.47
2023-02-08T08:32:11.747Z,99657.34
2023-02-08T08:34:40.275Z,99653.38
2023-02-08T08:37:08.628Z,99652.22
2023-02-08T08:39:37.257Z,99661.63
2023-02-08T08:42:05.869Z,99664.00
2023-02-08T08:44:35.637Z,99656.44
2023-02-08T08:47:03.922Z,99657.22
2023-02-08T08:49:32.404Z,99643.53
2023-02-08T08:52:00.671Z,99651.34
2023-02-08T08:54:28.932Z,99648.03
2023-02-08T08:56:57.123Z,99648.88
2023-02-08T08:59:25.508Z,99654.78
2023-02-08T09:01:55.456Z,99653.63
2023-02-08T09:04:23.931Z,99648.25
2023-02-08T09:06:53.854Z,99656.88
2023-02-08T09:09:23.305Z,99653.16
2023-02-08T09:11:51.916Z,99646.81
2023-02-08T09:14:20.251Z,99654.50
2023-02-08T09:16:49.249Z,99656.91
2023-02-08T09:19:18.910Z,99662.63
2023-02-08T09:21:47.462Z,99660.59
2023-02-08T09:24:15.748Z,99656.06
2023-02-08T09:26:45.837Z,99661.84
2023-02-08T09:29:14.144Z,99651.16
2023-02-08T09:31:42.852Z,99657.88
2023-02-08T09:34:11.824Z,99658.44
2023-02-08T09:36:42.624Z,99655.56
2023-02-08T09:39:15.241Z,99662.53
2023-02-08T09:42:08.818Z,99669.22
2023-02-08T09:44:51.356Z,99655.19
2023-02-08T09:47:24.641Z,99658.19
2023-02-08T09:50:03.199Z,99665.09
2023-02-08T09:52:39.576Z,99651.75
2023-02-08T09:55:22.906Z,99655.94
2023-02-08T09:57:54.895Z,99649.84
2023-02-08T10:00:33.203Z,99655.19
2023-02-08T10:03:03.322Z,99651.22
2023-02-08T10:05:32.807Z,99643.06
2023-02-08T10:08:03.467Z,99645.41
2023-02-08T10:10:45.160Z,99636.84
2023-02-08T10:13:41.073Z,99634.56
2023-02-08T10:16:22.740Z,99634.34
2023-02-08T10:19:03.810Z,99635.63
2023-02-08T10:21:49.790Z,99625.72
2023-02-08T10:24:49.598Z,99618.50
2023-02-08T10:27:24.845Z,99623.50
2023-02-08T10:30:22.302Z,99618.38
2023-02-08T10:33:02.565Z,99618.72
2023-02-08T10:35:37.304Z,99609.59
2023-02-08T10:38:25.488Z,99599.47
2023-02-08T10:40:59.805Z,99600.06
2023-02-08T10:43:40.310Z,99595.47
2023-02-08T10:46:17.976Z,99587.50
2023-02-08T10:49:00.047Z,99579.44
2023-02-08T10:51:29.870Z,99570.94
2023-02-08T10:53:58.845Z,99571.88
2023-02-08T10:56:41.050Z,99571.41
2023-02-08T10:59:21.356Z,99583.63
2023-02-08T11:01:51.144Z,99578.63
2023-02-08T11:04:19.743Z,99565.47
2023-02-08T11:06:50.422Z,99578.50
2023-02-08T11:09:25.217Z,99584.84
2023-02-08T11:11:55.782Z,99576.59
2023-02-08T11:14:40.908Z,99588.75
2023-02-08T11:17:27.643Z,99580.50
2023-02-08T11:19:56.690Z,99577.13
2023-02-08T11:22:28.293Z,99564.72
2023-02-08T11:25:00.439Z,99569.06
2023-02-08T11:27:36.676Z,99563.78
2023-02-08T11:30:24.765Z,99561.94
2023-02-08T11:33:18.500Z,99558.59
2023-02-08T11:35:58.464Z,99549.66
2023-02-08T11:38:28.573Z,99538.44
2023-02-08T11:40:59.892Z,99530.19
2023-02-08T11:43:32.489Z,99525.72
2023-02-08T11:46:02.516Z,99526.66
2023-02-08T11:48:44.566Z,99518.25
2023-02-08T11:51:23.760Z,99527.06
2023-02-08T11:53:52.364Z,99521.22
2023-02-08T11:56:23.266Z,99532.13
2023-02-08T11:59:07.660Z,99521.69
2023-02-08T12:01:39.289Z,99523.75
2023-02-08T12:04:11.614Z,99526.63
2023-02-08T12:07:19.745Z,99513.09
2023-02-08T12:10:18.100Z,99515.47
2023-02-08T12:13:02.413Z,99509.72
2023-02-08T12:15:57.419Z,99510.13
2023-02-08T12:18:52.358Z,99501.69
2023-02-08T12:21:26.747Z,99499.31
2023-02-08T12:23:58.649Z,99495.06
2023-02-08T12:26:53.962Z,99490.66
2023-02-08T12:29:47.375Z,99489.28
2023-02-08T12:32:42.465Z,99483.16
2023-02-08T12:36:03.190Z,99488.41
2023-02-08T12:39:27.417Z,99487.31
2023-02-08T12:42:25.891Z,99465.25
2023-02-08T12:45:32.903Z,99465.44
2023-02-08T12:48:19.166Z,99458.03
2023-02-08T12:50:54.712Z,99452.47
2023-02-08T12:53:30.972Z,99454.00
2023-02-08T12:56:03.526Z,99458.97
2023-02-08T12:58:36.737Z,99450.66
2023-02-08T13:01:13.192Z,99443.22
2023-02-08T13:03:49.452Z,99438.44
2023-02-08T13:06:23.355Z,99430.75
2023-02-08T13:08:58.856Z,99423.41
2023-02-08T13:11:37.138Z,99418.59
2023-02-08T13:14:10.959Z,99409.56
2023-02-08T13:16:44.868Z,99409.94
2023-02-08T13:19:27.735Z,99409.94
2023-02-08T13:21:56.540Z,99409.41
2023-02-08T13:24:32.987Z,99399.88
2023-02-08T13:27:01.289Z,99394.50
2023-02-08T13:29:30.961Z,99393.41
2023-02-08T13:32:04.775Z,99394.16
2023-02-08T13:34:39.583Z,99385.81
2023-02-08T13:37:25.174Z,99386.97
2023-02-08T13:40:03.179Z,99380.97
2023-02-08T13:42:39.684Z,99377.00
2023-02-08T13:45:10.846Z,99385.72
2023-02-08T13:47:47.542Z,99379.56
2023-02-08T13:50:47.733Z,99383.38
2023-02-08T13:53:17.532Z,99383.00
2023-02-08T13:55:59.373Z,99377.03
2023-02-08T13:59:01.382Z,99379.28
2023-02-08T14:01:31.771Z,99376.81
2023-02-08T14:04:32.867Z,99375.34
2023-02-08T14:07:17.589Z,99375.63
2023-02-08T14:09:54.996Z,99370.63
2023-02-08T14:12:28.980Z,99364.75
2023-02-08T14:15:23.571Z,99367.44
2023-02-08T14:17:58.225Z,99366.91
2023-02-08T14:20:32.129Z,99369.47
2023-02-08T14:23:04.815Z,99364.59
2023-02-08T14:25:43.583Z,99364.78
2023-02-08T14:28:28.890Z,99363.91
2023-02-08T14:31:00.349Z,99362.16
2023-02-08T14:33:34.300Z,99355.91
2023-02-08T14:36:07.279Z,99358.78
2023-02-08T14:39:09.830Z,99358.84
2023-02-08T14:41:57.238Z,99368.53
2023-02-08T14:45:03.762Z,99353.97
2023-02-08T14:48:21.344Z,99360.50
2023-02-08T14:51:03.984Z,99354.28
2023-02-08T14:53:44.271Z,99356.72
2023-02-08T14:56:24.589Z,99352.38
2023-02-08T14:58:57.339Z,99350.94
2023-02-08T15:01:44.581Z,99352.00
2023-02-08T15:04:14.279Z,99352.25
2023-02-08T15:07:12.205Z,99343.75
2023-02-08T15:09:43.282Z,99343.00
2023-02-08T15:12:18.796Z,99342.81
2023-02-08T15:14:47.395Z,99348.13
2023-02-08T15:17:32.455Z,99339.31
2023-02-08T15:20:02.354Z,99341.06
2023-02-08T15:22:36.948Z,99340.13
2023-02-08T15:25:24.056Z,99339.13
2023-02-08T15:27:56.803Z,99339.94
2023-02-08T15:30:31.644Z,99335.53
2023-02-08T15:33:01.067Z,99335.66
2023-02-08T15:35:33.367Z,99332.13
2023-02-08T15:38:05.127Z,99333.94
2023-02-08T15:40:36.115Z,99328.78
2023-02-08T15:43:14.507Z,99329.50
2023-02-08T15:45:42.832Z,99340.19
2023-02-08T15:48:13.939Z,99334.22
2023-02-08T15:50:43.048Z,99341.19
2023-02-08T15:53:16.666Z,99333.47
2023-02-08T15:55:50.456Z,99341.53
2023-02-08T15:58:30.105Z,99342.50
2023-02-08T16:01:00.953Z,99335.38
2023-02-08T16:03:31.029Z,99333.06
2023-02-08T16:06:02.163Z,99328.59
2023-02-08T16:08:34.148Z,99333.78
2023-02-08T16:11:07.116Z,99348.91
2023-02-08T16:13:40.244Z,99348.06
2023-02-08T16:16:22.685Z,99348.84
2023-02-08T16:18:59.438Z,99344.56
2023-02-08T16:21:41.523Z,99353.47
2023-02-08T16:24:26.302Z,99357.91
2023-02-08T16:27:05.989Z,99343.38
2023-02-08T16:29:39.124Z,99346.28
2023-02-08T16:32:19.112Z,99343.66
2023-02-08T16:34:47.890Z,99351.66
2023-02-08T16:37:27.420Z,99348.50
2023-02-08T16:39:58.225Z,99348.44
2023-02-08T16:42:30.724Z,99349.56
2023-02-08T16:45:16.059Z,99359.41
2023-02-08T16:47:49.274Z,99343.06
2023-02-08T16:50:20.141Z,99348.25
2023-02-08T16:52:52.664Z,99343.94
2023-02-08T16:55:23.561Z,99340.38
2023-02-08T16:57:54.212Z,99345.50
2023-02-08T17:00:27.265Z,99354.41
2023-02-08T17:02:57.200Z,99353.72
2023-02-08T17:05:28.782Z,99352.00
2023-02-08T17:07:57.560Z,99341.66
2023-02-08T17:10:29.187Z,99354.69
2023-02-08T17:13:17.058Z,99352.91
2023-02-08T17:15:49.687Z,99354.81
2023-02-08T17:18:18.096Z,99352.97
2023-02-08T17:20:46.902Z,99345.09
2023-02-08T17:23:16.326Z,99345.84
2023-02-08T17:25:45.203Z,99346.72
2023-02-08T17:28:19.381Z,99348.47
2023-02-08T17:30:50.370Z,99343.34
2023-02-08T17:33:21.639Z,99351.16
2023-02-08T17:35:51.941Z,99341.72
2023-02-08T17:38:21.444Z,99341.66
2023-02-08T17:40:50.155Z,99343.53
2023-02-08T17:43:18.965Z,99347.78
2023-02-08T17:45:48.547Z,99340.84
2023-02-08T17:48:17.375Z,99343.47
2023-02-08T17:50:50.841Z,99350.66
2023-02-08T17:53:19.700Z,99342.88
2023-02-08T17:55:48.292Z,99337.63
2023-02-08T17:58:17.616Z,99334.22
2023-02-08T18:00:45.907Z,99342.94
2023-02-08T18:03:17.238Z,99337.75
2023-02-08T18:05:45.580Z,99341.19
2023-02-08T18:08:13.833Z,99329.03
2023-02-08T18:10:42.664Z,99331.81
2023-02-08T18:13:11.125Z,99332.69
2023-02-08T18:15:39.465Z,99328.38
2023-02-08T18:18:07.792Z,99330.47
2023-02-08T18:20:37.449Z,99333.13
2023-02-08T18:23:05.699Z,99324.41
2023-02-08T18:25:34.037Z,99326.97
2023-02-08T18:28:02.304Z,99324.41
2023-02-08T18:30:30.784Z,99322.94
2023-02-08T18:32:59.108Z,99319.47
2023-02-08T18:35:27.383Z,99323.88
2023-02-08T18:37:56.976Z,99326.69
2023-02-08T18:40:25.251Z,99323.28
2023-02-08T18:42:53.489Z,99320.06
2023-02-08T18:45:21.921Z,99320.19
2023-02-08T18:47:50.165Z,99317.69
2023-02-08T18:50:18.588Z,99317.72
2023-02-08T18:52:46.842Z,99319.53
2023-02-08T18:55:16.673Z,99318.53
2023-02-08T18:57:48.161Z,99310.75
2023-02-08T19:00:17.641Z,99306.50
2023-02-08T19:02:46.489Z,99302.09
2023-02-08T19:05:14.763Z,99297.72
2023-02-08T19:07:43.018Z,99303.97
2023-02-08T19:10:11.581Z,99301.44
2023-02-08T19:12:41.691Z,99302.41
2023-02-08T19:15:10.822Z,99296.34
2023-02-08T19:17:39.221Z,99304.25
2023-02-08T19:20:09.227Z,99306.13
2023-02-08T19:22:37.461Z,99306.19
2023-02-08T19:25:06.429Z,99303.56
2023-02-08T19:27:34.684Z,99305.47
2023-02-08T19:30:05.802Z,99307.31
2023-02-08T19:32:34.071Z,99305.53
2023-02-08T19:35:02.359Z,99309.06
2023-02-08T19:37:30.634Z,99313.63
2023-02-08T19:39:58.936Z,99310.19
2023-02-08T19:42:27.227Z,99306.75
2023-02-08T19:44:55.536Z,99309.38
2023-02-08T19:47:43.420Z,99312.03
2023-02-08T19:50:15.507Z,99311.13
2023-02-08T19:52:43.770Z,99307.78
2023-02-08T19:55:12.236Z,99313.00
2023-02-08T19:57:41.121Z,99312.19
2023-02-08T20:00:22.415Z,99311.31
2023-02-08T20:02:53.162Z,99322.66
2023-02-08T20:05:21.493Z,99317.38
2023-02-08T20:07:49.718Z,99320.03
2023-02-08T20:10:18.088Z,99315.63
2023-02-08T20:12:46.366Z,99307.84
2023-02-08T20:15:14.578Z,99314.81
2023-02-08T20:17:44.097Z,99309.63
2023-02-08T20:20:14.029Z,99302.00
2023-02-08T20:22:42.342Z,99309.78
2023-02-08T20:25:10.587Z,99310.72
2023-02-08T20:27:38.868Z,99312.50
2023-02-08T20:30:08.748Z,99308.31
2023-02-08T20:32:36.985Z,99306.59
2023-02-08T20:35:05.533Z,99314.44
2023-02-08T20:37:35.330Z,99314.72
2023-02-08T20:40:04.040Z,99312.94
2023-02-08T20:42:32.493Z,99313.13
2023-02-08T20:45:00.740Z,99311.44
2023-02-08T20:47:31.865Z,99310.63
2023-02-08T20:50:04.992Z,99308.94
2023-02-08T20:52:39.971Z,99313.28
2023-02-08T20:55:09.665Z,99312.50
2023-02-08T20:57:37.975Z,99310.78
2023-02-08T21:00:07.686Z,99302.09
2023-02-08T21:02:35.996Z,99313.50
2023-02-08T21:05:04.286Z,99295.19
2023-02-08T21:07:32.515Z,99313.53
2023-02-08T21:10:03.942Z,99312.75
2023-02-08T21:12:33.456Z,99307.56
2023-02-08T21:15:01.898Z,99304.09
2023-02-08T21:17:30.597Z,99308.53
2023-02-08T21:19:58.882Z,99298.34
2023-02-08T21:22:27.477Z,99305.31
2023-02-08T21:24:56.121Z,99298.41
2023-02-08T21:27:25.780Z,99294.16
2023-02-08T21:29:54.049Z,99305.38
2023-02-08T21:32:22.344Z,99303.72
2023-02-08T21:34:50.960Z,99301.09
2023-02-08T21:37:19.279Z,99297.72
2023-02-08T21:39:47.542Z,99296.84
2023-02-08T21:42:15.894Z,99303.09
2023-02-08T21:44:45.523Z,99297.97
2023-02-08T21:47:13.892Z,99295.31
2023-02-08T21:49:59.697Z,99292.75
2023-02-08T21:52:45.558Z,99290.28
2023-02-08T21:55:13.941Z,99282.53
2023-02-08T21:57:42.221Z,99276.59
2023-02-08T22:00:14.200Z,99270.59
2023-02-08T22:02:43.473Z,99278.38
2023-02-08T22:05:29.160Z,99267.13
2023-02-08T22:08:00.386Z,99273.31
2023-02-08T22:10:31.454Z,99254.16
2023-02-08T22:13:00.228Z,99257.72
2023-02-08T22:15:30.869Z,99252.63
2023-02-08T22:18:02.487Z,99253.66
2023-02-08T22:20:31.593Z,99258.06
2023-02-08T22:22:59.875Z,99257.25
2023-02-08T22:25:28.196Z,99252.13
2023-02-08T22:27:56.575Z,99257.44
2023-02-08T22:30:25.744Z,99257.50
2023-02-08T22:32:55.524Z,99256.75
2023-02-08T22:35:23.789Z,99261.09
2023-02-08T22:37:52.077Z,99260.28
2023-02-08T22:40:21.083Z,99262.84
2023-02-08T22:42:49.346Z,99255.94
2023-02-08T22:45:17.661Z,99249.84
2023-02-08T22:47:46.273Z,99243.81
2023-02-08T22:50:16.439Z,99249.91
2023-02-08T22:52:44.710Z,99244.03
2023-02-08T22:55:12.988Z,99245.97
2023-02-08T22:57:43.434Z,99233.78
2023-02-08T23:00:15.204Z,99235.53
2023-02-08T23:02:43.532Z,99235.66
2023-02-08T23:05:11.859Z,99230.41
2023-02-08T23:07:41.538Z,99229.72
2023-02-08T23:10:11.923Z,99225.50
2023-02-08T23:12:40.643Z,99221.38
2023-02-08T23:15:11.505Z,99218.16
2023-02-08T23:17:39.759Z,99216.53
2023-02-08T23:20:09.313Z,99224.72
2023-02-08T23:22:40.061Z,99216.28
2023-02-08T23:25:08.910Z,99220.53
2023-02-08T23:27:37.231Z,99211.84
2023-02-08T23:30:09.434Z,99206.50
2023-02-08T23:32:38.374Z,99208.47
2023-02-08T23:35:07.784Z,99209.38
2023-02-08T23:37:36.104Z,99201.56
2023-02-08T23:40:07.216Z,99194.59
2023-02-08T23:42:35.486Z,99193.66
2023-02-08T23:45:03.893Z,99191.03
2023-02-08T23:47:32.698Z,99198.72
2023-02-08T23:50:01.078Z,99197.91
2023-02-08T23:52:29.338Z,99185.66
2023-02-08T23:54:57.682Z,99191.69
2023-02-08T23:57:28.321Z,99195.94
2023-02-08T23:59:56.596Z,99201.13
